sensor_id;sensor_type;location;lat;lon;timestamp;pressure;altitude;pressure_sealevel;temperature;humidity
10071;BME280;5074;53.720;10.014;2022-12-29T00:01:00;99648.19;;;7.16;100.00
10071;BME280;5074;53.720;10.014;2022-12-29T00:03:29;99646.97;;;7.24;100.00
10071;BME280;5074;53.720;10.014;2022-12-29T00:05:58;99651.50;;;7.22;100.00
10071;BME280;5074;53.720;10.014;2022-12-29T00:08:27;99644.19;;;7.27;100.00
10071;BME280;5074;53.720;10.014;2022-12-29T00:11:07;99641.66;;;7.24;100.00
10071;BME280;5074;53.720;10.014;2022-12-29T00:13:35;99644.00;;;7.32;100.00
10071;BME280;5074;53.720;10.014;2022-12-29T00:16:21;99638.53;;;7.37;100.00
10071;BME280;5074;53.720;10.014;2022-12-29T00:18:50;99629.59;;;7.38;100.00
10071;BME280;5074;53.720;10.014;2022-12-29T00:21:20;99625.38;;;7.32;100.00
10071;BME280;5074;53.720;10.014;2022-12-29T00:24:19;99619.78;;;7.40;100.00
10071;BME280;5074;53.720;10.014;2022-12-29T00:27:10;99617.31;;;7.35;100.00
10071;BME280;5074;53.720;10.014;2022-12-29T00:29:57;99601.66;;;7.50;100.00
10071;BME280;5074;53.720;10.014;2022-12-29T00:32:43;99605.47;;;7.42;100.00
10071;BME280;5074;53.720;10.014;2022-12-29T00:35:32;99599.13;;;7.46;100.00
10071;BME280;5074;53.720;10.014;2022-12-29T00:38:03;99597.09;;;7.53;100.00
10071;BME280;5074;53.720;10.014;2022-12-29T00:40:50;99597.28;;;7.48;100.00
10071;BME280;5074;53.720;10.014;2022-12-29T00:43:35;99592.69;;;7.52;100.00
10071;BME280;5074;53.720;10.014;2022-12-29T00:46:21;99600.78;;;7.49;100.00
10071;BME280;5074;53.720;10.014;2022-12-29T00:48:49;99607.78;;;7.52;100.00
10071;BME280;5074;53.720;10.014;2022-12-29T00:51:36;99594.22;;;7.58;100.00
10071;BME280;5074;53.720;10.014;2022-12-29T00:54:04;99591.63;;;7.56;100.00
10071;BME280;5074;53.720;10.014;2022-12-29T00:56:32;99597.56;;;7.63;100.00
10071;BME280;5074;53.720;10.014;2022-12-29T00:59:01;99591.44;;;7.61;100.00
10071;BME280;5074;53.720;10.014;2022-12-29T01:01:29;99587.06;;;7.60;100.00
10071;BME280;5074;53.720;10.014;2022-12-29T01:03:57;99584.13;;;7.66;100.00
10071;BME280;5074;53.720;10.014;2022-12-29T01:06:29;99575.47;;;7.61;100.00
10071;BME280;5074;53.720;10.014;2022-12-29T01:08:59;99580.44;;;7.70;100.00
10071;BME280;5074;53.720;10.014;2022-12-29T01:11:45;99579.53;;;7.70;100.00
10071;BME280;5074;53.720;10.014;2022-12-29T01:14:13;99580.28;;;7.73;100.00
10071;BME280;5074;53.720;10.014;2022-12-29T01:16:41;99572.25;;;7.75;100.00
10071;BME280;5074;53.720;10.014;2022-12-29T01:19:09;99584.69;;;7.74;100.00
10071;BME280;5074;53.720;10.014;2022-12-29T01:21:37;99577.75;;;7.70;100.00
10071;BME280;5074;53.720;10.014;2022-12-29T01:24:07;99576.66;;;7.76;100.00
10071;BME280;5074;53.720;10.014;2022-12-29T01:26:35;99572.03;;;7.79;100.00
10071;BME280;5074;53.720;10.014;2022-12-29T01:29:04;99567.53;;;7.81;100.00
10071;BME280;5074;53.720;10.014;2022-12-29T01:31:33;99553.56;;;7.76;100.00
10071;BME280;5074;53.720;10.014;2022-12-29T01:34:01;99557.88;;;7.79;100.00
10071;BME280;5074;53.720;10.014;2022-12-29T01:36:29;99545.38;;;7.81;100.00
10071;BME280;5074;53.720;10.014;2022-12-29T01:38:57;99548.50;;;7.91;100.00
10071;BME280;5074;53.720;10.014;2022-12-29T01:41:27;99549.63;;;7.85;100.00
10071;BME280;5074;53.720;10.014;2022-12-29T01:43:57;99548.84;;;7.83;100.00
10071;BME280;5074;53.720;10.014;2022-12-29T01:46:30;99550.31;;;7.90;100.00
10071;BME280;5074;53.720;10.014;2022-12-29T01:49:04;99546.91;;;7.87;100.00
10071;BME280;5074;53.720;10.014;2022-12-29T01:51:35;99533.22;;;7.96;100.00
10071;BME280;5074;53.720;10.014;2022-12-29T01:54:07;99538.47;;;7.97;100.00
10071;BME280;5074;53.720;10.014;2022-12-29T01:56:38;99530.72;;;7.91;100.00
10071;BME280;5074;53.720;10.014;2022-12-29T01:59:10;99534.06;;;7.96;100.00
10071;BME280;5074;53.720;10.014;2022-12-29T02:01:40;99541.84;;;8.01;100.00
10071;BME280;5074;53.720;10.014;2022-12-29T02:04:09;99529.59;;;7.97;100.00
10071;BME280;5074;53.720;10.014;2022-12-29T02:06:43;99527.63;;;8.02;100.00
10071;BME280;5074;53.720;10.014;2022-12-29T02:09:13;99530.22;;;8.04;100.00
10071;BME280;5074;53.720;10.014;2022-12-29T02:11:42;99528.41;;;8.04;100.00
10071;BME280;5074;53.720;10.014;2022-12-29T02:14:14;99510.13;;;7.96;100.00
10071;BME280;5074;53.720;10.014;2022-12-29T02:16:54;99527.53;;;8.04;100.00
10071;BME280;5074;53.720;10.014;2022-12-29T02:20:04;99517.00;;;8.21;100.00
10071;BME280;5074;53.720;10.014;2022-12-29T02:22:47;99512.97;;;8.31;100.00
10071;BME280;5074;53.720;10.014;2022-12-29T02:25:47;99500.34;;;8.37;100.00
10071;BME280;5074;53.720;10.014;2022-12-29T02:28:49;99505.31;;;8.44;100.00
10071;BME280;5074;53.720;10.014;2022-12-29T02:31:24;99502.66;;;8.44;100.00
10071;BME280;5074;53.720;10.014;2022-12-29T02:34:04;99511.25;;;8.51;100.00
10071;BME280;5074;53.720;10.014;2022-12-29T02:36:40;99500.03;;;8.43;100.00
10071;BME280;5074;53.720;10.014;2022-12-29T02:39:15;99499.13;;;8.44;100.00
10071;BME280;5074;53.720;10.014;2022-12-29T02:41:57;99486.53;;;8.47;100.00
10071;BME280;5074;53.720;10.014;2022-12-29T02:44:34;99485.38;;;8.53;100.00
10071;BME280;5074;53.720;10.014;2022-12-29T02:47:11;99473.72;;;8.56;100.00
10071;BME280;5074;53.720;10.014;2022-12-29T02:49:48;99481.00;;;8.52;100.00
10071;BME280;5074;53.720;10.014;2022-12-29T02:52:22;99485.66;;;8.66;100.00
10071;BME280;5074;53.720;10.014;2022-12-29T02:54:54;99484.38;;;8.56;100.00
10071;BME280;5074;53.720;10.014;2022-12-29T02:57:30;99484.31;;;8.57;100.00
10071;BME280;5074;53.720;10.014;2022-12-29T03:00:03;99475.31;;;8.60;100.00
10071;BME280;5074;53.720;10.014;2022-12-29T03:03:04;99480.84;;;8.74;100.00
10071;BME280;5074;53.720;10.014;2022-12-29T03:05:54;99476.59;;;8.70;100.00
10071;BME280;5074;53.720;10.014;2022-12-29T03:08:34;99483.75;;;8.69;100.00
10071;BME280;5074;53.720;10.014;2022-12-29T03:11:08;99477.44;;;8.71;100.00
10071;BME280;5074;53.720;10.014;2022-12-29T03:14:02;99476.13;;;8.79;100.00
10071;BME280;5074;53.720;10.014;2022-12-29T03:16:52;99465.88;;;8.72;100.00
10071;BME280;5074;53.720;10.014;2022-12-29T03:19:25;99466.84;;;8.88;100.00
10071;BME280;5074;53.720;10.014;2022-12-29T03:21:56;99453.66;;;8.85;100.00
10071;BME280;5074;53.720;10.014;2022-12-29T03:24:46;99460.97;;;8.81;100.00
10071;BME280;5074;53.720;10.014;2022-12-29T03:27:19;99447.56;;;8.83;100.00
10071;BME280;5074;53.720;10.014;2022-12-29T03:29:51;99452.16;;;8.79;100.00
10071;BME280;5074;53.720;10.014;2022-12-29T03:32:22;99451.72;;;8.89;100.00
10071;BME280;5074;53.720;10.014;2022-12-29T03:34:53;99444.75;;;8.86;100.00
10071;BME280;5074;53.720;10.014;2022-12-29T03:37:25;99438.31;;;8.73;100.00
10071;BME280;5074;53.720;10.014;2022-12-29T03:39:54;99424.75;;;8.77;100.00
10071;BME280;5074;53.720;10.014;2022-12-29T03:42:25;99424.91;;;8.74;100.00
10071;BME280;5074;53.720;10.014;2022-12-29T03:44:56;99433.91;;;8.72;100.00
10071;BME280;5074;53.720;10.014;2022-12-29T03:47:24;99434.91;;;8.69;100.00
10071;BME280;5074;53.720;10.014;2022-12-29T03:49:54;99431.16;;;8.73;100.00
10071;BME280;5074;53.720;10.014;2022-12-29T03:52:22;99434.59;;;8.75;100.00
10071;BME280;5074;53.720;10.014;2022-12-29T03:54:50;99428.34;;;8.76;100.00
10071;BME280;5074;53.720;10.014;2022-12-29T03:57:18;99429.16;;;8.78;100.00
10071;BME280;5074;53.720;10.014;2022-12-29T03:59:46;99425.75;;;8.75;100.00
10071;BME280;5074;53.720;10.014;2022-12-29T04:02:14;99425.50;;;8.62;100.00
10071;BME280;5074;53.720;10.014;2022-12-29T04:04:44;99418.50;;;8.78;100.00
10071;BME280;5074;53.720;10.014;2022-12-29T04:07:13;99398.13;;;8.77;100.00
10071;BME280;5074;53.720;10.014;2022-12-29T04:09:41;99398.97;;;8.78;100.00
10071;BME280;5074;53.720;10.014;2022-12-29T04:12:09;99398.72;;;8.82;100.00
10071;BME280;5074;53.720;10.014;2022-12-29T04:14:37;99396.06;;;8.82;100.00
10071;BME280;5074;53.720;10.014;2022-12-29T04:17:05;99398.88;;;8.79;100.00
10071;BME280;5074;53.720;10.014;2022-12-29T04:19:33;99403.03;;;8.85;100.00
10071;BME280;5074;53.720;10.014;2022-12-29T04:22:01;99399.22;;;8.91;100.00
10071;BME280;5074;53.720;10.014;2022-12-29T04:24:30;99396.78;;;8.86;100.00
10071;BME280;5074;53.720;10.014;2022-12-29T04:26:59;99397.78;;;8.83;100.00
10071;BME280;5074;53.720;10.014;2022-12-29T04:29:27;99396.63;;;8.89;100.00
10071;BME280;5074;53.720;10.014;2022-12-29T04:31:55;99397.34;;;8.93;100.00
10071;BME280;5074;53.720;10.014;2022-12-29T04:34:23;99386.97;;;8.86;100.00
10071;BME280;5074;53.720;10.014;2022-12-29T04:36:51;99385.81;;;8.92;100.00
10071;BME280;5074;53.720;10.014;2022-12-29T04:39:19;99377.81;;;8.92;100.00
10071;BME280;5074;53.720;10.014;2022-12-29T04:41:48;99364.91;;;8.84;100.00
10071;BME280;5074;53.720;10.014;2022-12-29T04:44:16;99356.75;;;8.88;100.00
10071;BME280;5074;53.720;10.014;2022-12-29T04:46:44;99371.56;;;8.93;100.00
10071;BME280;5074;53.720;10.014;2022-12-29T04:49:13;99367.47;;;8.86;100.00
10071;BME280;5074;53.720;10.014;2022-12-29T04:51:41;99360.97;;;8.92;100.00
10071;BME280;5074;53.720;10.014;2022-12-29T04:54:09;99355.88;;;8.87;100.00
10071;BME280;5074;53.720;10.014;2022-12-29T04:56:37;99356.81;;;8.86;100.00
10071;BME280;5074;53.720;10.014;2022-12-29T04:59:06;99364.50;;;8.92;100.00
10071;BME280;5074;53.720;10.014;2022-12-29T05:01:34;99351.25;;;8.91;100.00
10071;BME280;5074;53.720;10.014;2022-12-29T05:04:02;99352.91;;;8.93;100.00
10071;BME280;5074;53.720;10.014;2022-12-29T05:06:30;99343.25;;;8.91;100.00
10071;BME280;5074;53.720;10.014;2022-12-29T05:08:58;99347.00;;;8.86;100.00
10071;BME280;5074;53.720;10.014;2022-12-29T05:11:26;99345.06;;;8.90;100.00
10071;BME280;5074;53.720;10.014;2022-12-29T05:13:54;99349.53;;;8.90;100.00
10071;BME280;5074;53.720;10.014;2022-12-29T05:16:23;99337.75;;;8.94;100.00
10071;BME280;5074;53.720;10.014;2022-12-29T05:18:52;99346.84;;;8.90;100.00
10071;BME280;5074;53.720;10.014;2022-12-29T05:21:20;99343.25;;;8.91;100.00
10071;BME280;5074;53.720;10.014;2022-12-29T05:23:48;99344.75;;;8.96;100.00
10071;BME280;5074;53.720;10.014;2022-12-29T05:26:16;99334.81;;;9.00;100.00
10071;BME280;5074;53.720;10.014;2022-12-29T05:28:44;99342.47;;;9.06;100.00
10071;BME280;5074;53.720;10.014;2022-12-29T05:31:12;99350.72;;;9.01;100.00
10071;BME280;5074;53.720;10.014;2022-12-29T05:33:41;99350.94;;;8.97;100.00
10071;BME280;5074;53.720;10.014;2022-12-29T05:36:10;99351.88;;;9.13;100.00
10071;BME280;5074;53.720;10.014;2022-12-29T05:38:38;99359.47;;;9.21;100.00
10071;BME280;5074;53.720;10.014;2022-12-29T05:41:06;99352.41;;;9.20;100.00
10071;BME280;5074;53.720;10.014;2022-12-29T05:43:34;99361.63;;;9.14;100.00
10071;BME280;5074;53.720;10.014;2022-12-29T05:46:02;99353.03;;;9.25;100.00
10071;BME280;5074;53.720;10.014;2022-12-29T05:48:30;99353.59;;;9.32;100.00
10071;BME280;5074;53.720;10.014;2022-12-29T05:51:05;99366.63;;;9.20;100.00
10071;BME280;5074;53.720;10.014;2022-12-29T05:53:33;99345.81;;;9.27;100.00
10071;BME280;5074;53.720;10.014;2022-12-29T05:56:01;99345.34;;;9.36;100.00
10071;BME280;5074;53.720;10.014;2022-12-29T05:58:29;99342.94;;;9.32;100.00
10071;BME280;5074;53.720;10.014;2022-12-29T06:00:57;99351.69;;;9.34;100.00
10071;BME280;5074;53.720;10.014;2022-12-29T06:03:25;99345.09;;;9.41;100.00
10071;BME280;5074;53.720;10.014;2022-12-29T06:05:53;99342.28;;;9.27;100.00
10071;BME280;5074;53.720;10.014;2022-12-29T06:08:22;99359.59;;;9.35;100.00
10071;BME280;5074;53.720;10.014;2022-12-29T06:10:51;99357.34;;;9.28;100.00
10071;BME280;5074;53.720;10.014;2022-12-29T06:13:19;99365.50;;;9.42;100.00
10071;BME280;5074;53.720;10.014;2022-12-29T06:15:48;99366.13;;;9.30;100.00
10071;BME280;5074;53.720;10.014;2022-12-29T06:18:16;99365.53;;;9.25;100.00
10071;BME280;5074;53.720;10.014;2022-12-29T06:20:46;99369.50;;;9.33;100.00
10071;BME280;5074;53.720;10.014;2022-12-29T06:23:14;99374.59;;;9.38;100.00
10071;BME280;5074;53.720;10.014;2022-12-29T06:25:44;99371.94;;;9.38;100.00
10071;BME280;5074;53.720;10.014;2022-12-29T06:28:14;99364.94;;;9.35;100.00
10071;BME280;5074;53.720;10.014;2022-12-29T06:30:43;99350.38;;;9.25;100.00
10071;BME280;5074;53.720;10.014;2022-12-29T06:33:12;99361.09;;;9.41;100.00
10071;BME280;5074;53.720;10.014;2022-12-29T06:35:41;99361.44;;;9.35;100.00
10071;BME280;5074;53.720;10.014;2022-12-29T06:38:09;99350.22;;;9.28;100.00
10071;BME280;5074;53.720;10.014;2022-12-29T06:40:38;99344.03;;;9.28;100.00
10071;BME280;5074;53.720;10.014;2022-12-29T06:43:07;99345.81;;;9.27;100.00
10071;BME280;5074;53.720;10.014;2022-12-29T06:45:37;99339.63;;;9.27;100.00
10071;BME280;5074;53.720;10.014;2022-12-29T06:48:06;99342.22;;;9.28;100.00
10071;BME280;5074;53.720;10.014;2022-12-29T06:50:34;99341.13;;;9.32;100.00
10071;BME280;5074;53.720;10.014;2022-12-29T06:53:02;99332.25;;;9.32;100.00
10071;BME280;5074;53.720;10.014;2022-12-29T06:55:30;99324.56;;;9.26;100.00
10071;BME280;5074;53.720;10.014;2022-12-29T06:57:59;99325.44;;;9.26;100.00
10071;BME280;5074;53.720;10.014;2022-12-29T07:00:29;99328.63;;;9.33;100.00
10071;BME280;5074;53.720;10.014;2022-12-29T07:02:57;99337.59;;;9.32;100.00
10071;BME280;5074;53.720;10.014;2022-12-29T07:05:26;99336.78;;;9.30;100.00
10071;BME280;5074;53.720;10.014;2022-12-29T07:07:54;99335.09;;;9.29;100.00
10071;BME280;5074;53.720;10.014;2022-12-29T07:10:23;99337.03;;;9.25;100.00
10071;BME280;5074;53.720;10.014;2022-12-29T07:12:51;99334.38;;;9.25;100.00
10071;BME280;5074;53.720;10.014;2022-12-29T07:15:19;99344.41;;;9.20;100.00
10071;BME280;5074;53.720;10.014;2022-12-29T07:17:48;99344.50;;;9.18;100.00
10071;BME280;5074;53.720;10.014;2022-12-29T07:20:17;99345.53;;;9.16;100.00
10071;BME280;5074;53.720;10.014;2022-12-29T07:22:54;99359.25;;;9.08;100.00
10071;BME280;5074;53.720;10.014;2022-12-29T07:25:22;99349.53;;;9.07;100.00
10071;BME280;5074;53.720;10.014;2022-12-29T07:27:50;99361.13;;;9.06;100.00
10071;BME280;5074;53.720;10.014;2022-12-29T07:30:18;99361.22;;;9.04;100.00
10071;BME280;5074;53.720;10.014;2022-12-29T07:32:48;99373.81;;;9.01;100.00
10071;BME280;5074;53.720;10.014;2022-12-29T07:35:16;99373.56;;;9.06;100.00
10071;BME280;5074;53.720;10.014;2022-12-29T07:37:44;99373.28;;;9.12;100.00
10071;BME280;5074;53.720;10.014;2022-12-29T07:40:12;99382.28;;;9.09;100.00
10071;BME280;5074;53.720;10.014;2022-12-29T07:42:40;99385.59;;;9.14;100.00
10071;BME280;5074;53.720;10.014;2022-12-29T07:45:09;99382.97;;;9.13;100.00
10071;BME280;5074;53.720;10.014;2022-12-29T07:47:37;99382.69;;;9.19;100.00
10071;BME280;5074;53.720;10.014;2022-12-29T07:50:07;99369.66;;;9.13;100.00
10071;BME280;5074;53.720;10.014;2022-12-29T07:52:35;99376.66;;;9.15;100.00
10071;BME280;5074;53.720;10.014;2022-12-29T07:55:04;99376.66;;;9.15;100.00
10071;BME280;5074;53.720;10.014;2022-12-29T07:57:32;99375.06;;;9.11;100.00
10071;BME280;5074;53.720;10.014;2022-12-29T08:00:00;99378.69;;;9.10;100.00
10071;BME280;5074;53.720;10.014;2022-12-29T08:02:28;99378.53;;;9.13;100.00
10071;BME280;5074;53.720;10.014;2022-12-29T08:04:56;99374.06;;;9.14;100.00
10071;BME280;5074;53.720;10.014;2022-12-29T08:07:26;99381.38;;;9.10;100.00
10071;BME280;5074;53.720;10.014;2022-12-29T08:09:54;99378.22;;;9.19;100.00
10071;BME280;5074;53.720;10.014;2022-12-29T08:12:22;99382.38;;;9.25;100.00
10071;BME280;5074;53.720;10.014;2022-12-29T08:14:50;99384.88;;;9.28;100.00
10071;BME280;5074;53.720;10.014;2022-12-29T08:17:18;99384.94;;;9.44;100.00
10071;BME280;5074;53.720;10.014;2022-12-29T08:19:46;99399.22;;;9.43;100.00
10071;BME280;5074;53.720;10.014;2022-12-29T08:22:14;99382.44;;;9.41;100.00
10071;BME280;5074;53.720;10.014;2022-12-29T08:24:44;99400.00;;;9.45;100.00
10071;BME280;5074;53.720;10.014;2022-12-29T08:27:12;99400.06;;;9.44;100.00
10071;BME280;5074;53.720;10.014;2022-12-29T08:29:46;99405.50;;;9.42;100.00
10071;BME280;5074;53.720;10.014;2022-12-29T08:32:15;99409.75;;;9.29;100.00
10071;BME280;5074;53.720;10.014;2022-12-29T08:34:43;99418.91;;;9.41;100.00
10071;BME280;5074;53.720;10.014;2022-12-29T08:37:11;99413.47;;;9.60;100.00
10071;BME280;5074;53.720;10.014;2022-12-29T08:39:39;99422.41;;;9.59;100.00
10071;BME280;5074;53.720;10.014;2022-12-29T08:42:09;99419.34;;;9.49;100.00
10071;BME280;5074;53.720;10.014;2022-12-29T08:44:37;99428.63;;;9.59;100.00
10071;BME280;5074;53.720;10.014;2022-12-29T08:47:05;99433.72;;;9.64;100.00
10071;BME280;5074;53.720;10.014;2022-12-29T08:49:34;99421.84;;;9.69;100.00
10071;BME280;5074;53.720;10.014;2022-12-29T08:52:03;99422.53;;;9.73;100.00
10071;BME280;5074;53.720;10.014;2022-12-29T08:54:32;99430.16;;;9.63;100.00
10071;BME280;5074;53.720;10.014;2022-12-29T08:57:00;99423.25;;;9.77;100.00
10071;BME280;5074;53.720;10.014;2022-12-29T08:59:29;99427.41;;;9.82;100.00
10071;BME280;5074;53.720;10.014;2022-12-29T09:01:57;99434.13;;;9.89;100.00
10071;BME280;5074;53.720;10.014;2022-12-29T09:04:25;99427.16;;;9.87;100.00
10071;BME280;5074;53.720;10.014;2022-12-29T09:06:54;99420.25;;;9.83;100.00
10071;BME280;5074;53.720;10.014;2022-12-29T09:09:22;99419.19;;;9.69;100.00
10071;BME280;5074;53.720;10.014;2022-12-29T09:11:50;99425.22;;;9.73;100.00
10071;BME280;5074;53.720;10.014;2022-12-29T09:14:18;99428.22;;;9.67;100.00
10071;BME280;5074;53.720;10.014;2022-12-29T09:16:50;99430.38;;;9.76;100.00
10071;BME280;5074;53.720;10.014;2022-12-29T09:19:35;99435.97;;;9.71;100.00
10071;BME280;5074;53.720;10.014;2022-12-29T09:22:03;99432.53;;;9.69;100.00
10071;BME280;5074;53.720;10.014;2022-12-29T09:24:31;99438.28;;;9.78;100.00
10071;BME280;5074;53.720;10.014;2022-12-29T09:26:59;99432.09;;;9.77;100.00
10071;BME280;5074;53.720;10.014;2022-12-29T09:29:27;99439.25;;;9.77;100.00
10071;BME280;5074;53.720;10.014;2022-12-29T09:31:57;99446.00;;;9.84;100.00
10071;BME280;5074;53.720;10.014;2022-12-29T09:34:25;99455.88;;;9.82;100.00
10071;BME280;5074;53.720;10.014;2022-12-29T09:36:53;99464.69;;;9.84;100.00
10071;BME280;5074;53.720;10.014;2022-12-29T09:39:22;99456.75;;;9.82;100.00
10071;BME280;5074;53.720;10.014;2022-12-29T09:41:58;99454.53;;;9.90;100.00
10071;BME280;5074;53.720;10.014;2022-12-29T09:44:38;99447.47;;;9.89;100.00
10071;BME280;5074;53.720;10.014;2022-12-29T09:47:14;99457.81;;;9.96;100.00
10071;BME280;5074;53.720;10.014;2022-12-29T09:49:45;99460.94;;;10.04;100.00
10071;BME280;5074;53.720;10.014;2022-12-29T09:52:20;99460.78;;;10.07;100.00
10071;BME280;5074;53.720;10.014;2022-12-29T09:54:54;99465.50;;;10.02;100.00
10071;BME280;5074;53.720;10.014;2022-12-29T09:57:35;99471.53;;;10.05;100.00
